PAKT/KTN METAR and TAF weather

Enter ICAO airport designator
Station Type Date Time Source
PAKT METAR 2018/12/10 02:53 UTC NOAA

PAKT 100253Z VRB03KT 4SM RA BR FEW018 OVC029 08/06 A2958 RMK AO2 SLP017 6//// T00780056 51018 PNO $


Station Type Date Time Source
PAKT Decoded METAR 2018/12/10 02:53 UTC NOAA

KETCHIKAN INTERNATIONAL AIRPORT , AK, United States (PAKT) 55-21N 131-43W 25M
Dec 09, 2018 - 09:53 PM EST / 2018.12.10 0253 UTC
Wind: Variable at 3 MPH (3 KT):0
Visibility: 4 mile(s):0
Sky conditions: overcast
Weather: rain; mist
Temperature: 46.0 F (7.8 C)
Dew Point: 42.1 F (5.6 C)
Relative Humidity: 85%
Pressure (altimeter): 29.58 in. Hg (1001 hPa)
Pressure tendency: 0.05 inches (1.8 hPa) higher than three hours ago
ob: PAKT 100253Z VRB03KT 4SM RA BR FEW018 OVC029 08/06 A2958 RMK AO2 SLP017 6//// T00780056 51018 PNO
cycle: 3

Station Type Date Time Source
PAKT TAF 2018/12/10 02:33 UTC NOAA

TAF
AMD PAKT 100130Z 1002/1024 15010KT 3SM -SHRA BR OVC020
FM100300 14010KT 6SM -SHRA OVC015
FM100600 14010KT P6SM VCSH SCT025 OVC035
FM101500 14020G35KT P6SM -RA OVC035 WS020/14045KT
FM102000 14025G45KT 3SM RA BR OVC020 WS020/14050KT
AMD LTD TO CLD VIS AND WIND 1006/1015


Example: see airport list